sensor_id;sensor_type;location;lat;lon;timestamp;P1;durP1;ratioP1;P2;durP2;ratioP2
13720;SDS011;6932;51.438;5.470;2023-04-20T00:11:47;5.40;;;2.70;;
13720;SDS011;6932;51.438;5.470;2023-04-20T00:14:13;6.07;;;2.57;;
13720;SDS011;6932;51.438;5.470;2023-04-20T00:16:40;4.70;;;2.70;;
13720;SDS011;6932;51.438;5.470;2023-04-20T00:19:06;3.70;;;2.70;;
13720;SDS011;6932;51.438;5.470;2023-04-20T00:21:33;7.50;;;2.80;;
13720;SDS011;6932;51.438;5.470;2023-04-20T00:27:02;5.60;;;3.00;;
13720;SDS011;6932;51.438;5.470;2023-04-20T00:29:28;6.77;;;2.90;;
13720;SDS011;6932;51.438;5.470;2023-04-20T00:31:53;5.80;;;3.10;;
13720;SDS011;6932;51.438;5.470;2023-04-20T00:34:19;4.53;;;2.80;;
13720;SDS011;6932;51.438;5.470;2023-04-20T00:36:45;5.60;;;3.10;;
13720;SDS011;6932;51.438;5.470;2023-04-20T00:42:51;5.93;;;3.00;;
13720;SDS011;6932;51.438;5.470;2023-04-20T00:45:17;4.13;;;2.73;;
13720;SDS011;6932;51.438;5.470;2023-04-20T00:47:43;4.37;;;2.60;;
13720;SDS011;6932;51.438;5.470;2023-04-20T00:50:10;5.30;;;3.07;;
13720;SDS011;6932;51.438;5.470;2023-04-20T00:52:35;4.63;;;2.77;;
13720;SDS011;6932;51.438;5.470;2023-04-20T00:55:02;4.13;;;2.60;;
13720;SDS011;6932;51.438;5.470;2023-04-20T00:57:29;5.37;;;2.80;;
13720;SDS011;6932;51.438;5.470;2023-04-20T01:10:59;6.03;;;2.60;;
13720;SDS011;6932;51.438;5.470;2023-04-20T01:13:24;4.73;;;2.60;;
13720;SDS011;6932;51.438;5.470;2023-04-20T01:15:51;7.50;;;2.90;;
13720;SDS011;6932;51.438;5.470;2023-04-20T01:18:16;5.20;;;2.50;;
13720;SDS011;6932;51.438;5.470;2023-04-20T01:20:44;4.73;;;2.50;;
13720;SDS011;6932;51.438;5.470;2023-04-20T01:26:52;4.20;;;2.40;;
13720;SDS011;6932;51.438;5.470;2023-04-20T01:32:37;6.10;;;2.77;;
13720;SDS011;6932;51.438;5.470;2023-04-20T01:35:04;3.37;;;2.47;;
13720;SDS011;6932;51.438;5.470;2023-04-20T01:37:31;5.10;;;2.23;;
13720;SDS011;6932;51.438;5.470;2023-04-20T01:39:57;4.10;;;2.43;;
13720;SDS011;6932;51.438;5.470;2023-04-20T01:42:23;3.43;;;2.30;;
13720;SDS011;6932;51.438;5.470;2023-04-20T01:44:48;4.87;;;2.60;;
13720;SDS011;6932;51.438;5.470;2023-04-20T01:47:15;4.13;;;2.50;;
13720;SDS011;6932;51.438;5.470;2023-04-20T01:49:40;4.13;;;2.40;;
13720;SDS011;6932;51.438;5.470;2023-04-20T01:52:07;4.60;;;2.47;;
13720;SDS011;6932;51.438;5.470;2023-04-20T01:54:33;6.67;;;2.53;;
13720;SDS011;6932;51.438;5.470;2023-04-20T01:56:59;5.90;;;2.70;;
13720;SDS011;6932;51.438;5.470;2023-04-20T01:59:26;4.53;;;2.50;;
13720;SDS011;6932;51.438;5.470;2023-04-20T02:01:52;4.80;;;2.60;;
13720;SDS011;6932;51.438;5.470;2023-04-20T02:04:17;3.67;;;2.37;;
13720;SDS011;6932;51.438;5.470;2023-04-20T02:06:44;3.77;;;2.43;;
13720;SDS011;6932;51.438;5.470;2023-04-20T02:09:10;4.93;;;2.50;;
13720;SDS011;6932;51.438;5.470;2023-04-20T02:11:36;5.37;;;2.63;;
13720;SDS011;6932;51.438;5.470;2023-04-20T02:14:02;5.23;;;2.67;;
13720;SDS011;6932;51.438;5.470;2023-04-20T02:16:27;4.30;;;2.30;;
13720;SDS011;6932;51.438;5.470;2023-04-20T02:18:54;4.60;;;2.50;;
13720;SDS011;6932;51.438;5.470;2023-04-20T02:21:20;4.37;;;2.40;;
13720;SDS011;6932;51.438;5.470;2023-04-20T02:23:46;4.73;;;2.30;;
13720;SDS011;6932;51.438;5.470;2023-04-20T02:26:12;3.80;;;2.60;;
13720;SDS011;6932;51.438;5.470;2023-04-20T02:28:38;3.23;;;2.40;;
13720;SDS011;6932;51.438;5.470;2023-04-20T02:31:04;4.30;;;2.50;;
13720;SDS011;6932;51.438;5.470;2023-04-20T02:33:30;7.47;;;2.67;;
13720;SDS011;6932;51.438;5.470;2023-04-20T02:35:56;5.70;;;2.60;;
13720;SDS011;6932;51.438;5.470;2023-04-20T02:38:21;6.60;;;2.57;;
13720;SDS011;6932;51.438;5.470;2023-04-20T02:40:47;5.77;;;2.73;;
13720;SDS011;6932;51.438;5.470;2023-04-20T02:43:13;4.30;;;2.57;;
13720;SDS011;6932;51.438;5.470;2023-04-20T02:45:39;4.33;;;2.40;;
13720;SDS011;6932;51.438;5.470;2023-04-20T02:48:05;5.07;;;2.57;;
13720;SDS011;6932;51.438;5.470;2023-04-20T02:50:31;5.63;;;2.60;;
13720;SDS011;6932;51.438;5.470;2023-04-20T02:52:57;3.87;;;2.40;;
13720;SDS011;6932;51.438;5.470;2023-04-20T02:55:22;4.37;;;2.73;;
13720;SDS011;6932;51.438;5.470;2023-04-20T02:57:48;5.97;;;2.40;;
13720;SDS011;6932;51.438;5.470;2023-04-20T03:00:14;3.83;;;2.43;;
13720;SDS011;6932;51.438;5.470;2023-04-20T03:02:40;4.00;;;2.40;;
13720;SDS011;6932;51.438;5.470;2023-04-20T03:05:06;4.33;;;2.70;;
13720;SDS011;6932;51.438;5.470;2023-04-20T03:07:32;4.67;;;2.57;;
13720;SDS011;6932;51.438;5.470;2023-04-20T03:09:58;4.33;;;2.43;;
13720;SDS011;6932;51.438;5.470;2023-04-20T03:12:24;5.13;;;2.70;;
13720;SDS011;6932;51.438;5.470;2023-04-20T03:14:50;7.40;;;2.40;;
13720;SDS011;6932;51.438;5.470;2023-04-20T03:17:16;6.53;;;2.83;;
13720;SDS011;6932;51.438;5.470;2023-04-20T03:19:42;5.40;;;2.40;;
13720;SDS011;6932;51.438;5.470;2023-04-20T03:25:26;4.90;;;2.70;;
13720;SDS011;6932;51.438;5.470;2023-04-20T03:27:53;5.13;;;2.60;;
13720;SDS011;6932;51.438;5.470;2023-04-20T03:30:19;3.53;;;2.50;;
13720;SDS011;6932;51.438;5.470;2023-04-20T03:32:44;5.87;;;2.77;;
13720;SDS011;6932;51.438;5.470;2023-04-20T03:35:10;5.10;;;2.50;;
13720;SDS011;6932;51.438;5.470;2023-04-20T03:37:36;4.37;;;2.50;;
13720;SDS011;6932;51.438;5.470;2023-04-20T03:40:03;5.33;;;2.73;;
13720;SDS011;6932;51.438;5.470;2023-04-20T03:42:31;6.10;;;2.80;;
13720;SDS011;6932;51.438;5.470;2023-04-20T03:44:56;4.17;;;2.47;;
13720;SDS011;6932;51.438;5.470;2023-04-20T03:47:22;4.00;;;2.63;;
13720;SDS011;6932;51.438;5.470;2023-04-20T03:49:48;6.33;;;2.87;;
13720;SDS011;6932;51.438;5.470;2023-04-20T03:52:14;6.53;;;2.97;;
13720;SDS011;6932;51.438;5.470;2023-04-20T03:54:40;5.67;;;2.60;;
13720;SDS011;6932;51.438;5.470;2023-04-20T03:57:06;5.47;;;2.60;;
13720;SDS011;6932;51.438;5.470;2023-04-20T03:59:31;4.70;;;2.63;;
13720;SDS011;6932;51.438;5.470;2023-04-20T04:05:41;5.93;;;2.80;;
13720;SDS011;6932;51.438;5.470;2023-04-20T04:08:07;4.47;;;2.53;;
13720;SDS011;6932;51.438;5.470;2023-04-20T04:10:32;4.80;;;2.63;;
13720;SDS011;6932;51.438;5.470;2023-04-20T04:12:58;4.90;;;3.03;;
13720;SDS011;6932;51.438;5.470;2023-04-20T04:15:24;4.40;;;2.73;;
13720;SDS011;6932;51.438;5.470;2023-04-20T04:17:50;5.40;;;2.97;;
13720;SDS011;6932;51.438;5.470;2023-04-20T04:20:17;5.20;;;2.77;;
13720;SDS011;6932;51.438;5.470;2023-04-20T04:37:36;5.83;;;2.70;;
13720;SDS011;6932;51.438;5.470;2023-04-20T04:40:02;5.73;;;2.80;;
13720;SDS011;6932;51.438;5.470;2023-04-20T04:42:31;6.73;;;2.90;;
13720;SDS011;6932;51.438;5.470;2023-04-20T04:45:01;3.93;;;2.80;;
13720;SDS011;6932;51.438;5.470;2023-04-20T04:47:28;5.10;;;3.03;;
13720;SDS011;6932;51.438;5.470;2023-04-20T04:49:59;5.37;;;3.03;;
13720;SDS011;6932;51.438;5.470;2023-04-20T04:52:29;8.00;;;3.40;;
13720;SDS011;6932;51.438;5.470;2023-04-20T04:54:59;6.90;;;3.20;;
13720;SDS011;6932;51.438;5.470;2023-04-20T04:57:25;5.00;;;3.13;;
13720;SDS011;6932;51.438;5.470;2023-04-20T04:59:51;6.03;;;3.10;;
13720;SDS011;6932;51.438;5.470;2023-04-20T05:02:17;8.17;;;3.23;;
13720;SDS011;6932;51.438;5.470;2023-04-20T05:04:43;5.77;;;3.20;;
13720;SDS011;6932;51.438;5.470;2023-04-20T05:07:09;9.03;;;3.00;;
13720;SDS011;6932;51.438;5.470;2023-04-20T05:09:35;5.63;;;3.60;;
13720;SDS011;6932;51.438;5.470;2023-04-20T05:12:01;5.30;;;3.30;;
13720;SDS011;6932;51.438;5.470;2023-04-20T05:14:29;6.43;;;3.60;;
13720;SDS011;6932;51.438;5.470;2023-04-20T05:16:56;5.70;;;3.17;;
13720;SDS011;6932;51.438;5.470;2023-04-20T05:19:22;6.40;;;3.33;;
13720;SDS011;6932;51.438;5.470;2023-04-20T05:21:48;5.97;;;3.30;;
13720;SDS011;6932;51.438;5.470;2023-04-20T05:24:14;6.53;;;3.60;;
13720;SDS011;6932;51.438;5.470;2023-04-20T05:26:41;6.10;;;3.60;;
13720;SDS011;6932;51.438;5.470;2023-04-20T05:29:08;6.33;;;3.60;;
13720;SDS011;6932;51.438;5.470;2023-04-20T05:31:34;6.03;;;3.37;;
13720;SDS011;6932;51.438;5.470;2023-04-20T05:34:00;5.20;;;3.47;;
13720;SDS011;6932;51.438;5.470;2023-04-20T05:36:27;6.13;;;3.20;;
13720;SDS011;6932;51.438;5.470;2023-04-20T05:38:54;5.23;;;3.20;;
13720;SDS011;6932;51.438;5.470;2023-04-20T05:41:20;4.90;;;3.10;;
13720;SDS011;6932;51.438;5.470;2023-04-20T05:43:50;5.90;;;3.20;;
13720;SDS011;6932;51.438;5.470;2023-04-20T05:46:21;5.80;;;3.30;;
13720;SDS011;6932;51.438;5.470;2023-04-20T05:48:47;6.60;;;3.60;;
13720;SDS011;6932;51.438;5.470;2023-04-20T05:51:14;5.53;;;3.40;;
13720;SDS011;6932;51.438;5.470;2023-04-20T05:53:48;6.97;;;3.63;;
13720;SDS011;6932;51.438;5.470;2023-04-20T05:56:14;5.60;;;3.40;;
13720;SDS011;6932;51.438;5.470;2023-04-20T05:58:42;6.23;;;3.20;;
13720;SDS011;6932;51.438;5.470;2023-04-20T06:01:08;4.97;;;3.10;;
13720;SDS011;6932;51.438;5.470;2023-04-20T06:03:34;5.67;;;3.37;;
13720;SDS011;6932;51.438;5.470;2023-04-20T06:06:00;5.17;;;3.33;;
13720;SDS011;6932;51.438;5.470;2023-04-20T06:08:25;6.20;;;3.27;;
13720;SDS011;6932;51.438;5.470;2023-04-20T06:10:54;5.83;;;3.30;;
13720;SDS011;6932;51.438;5.470;2023-04-20T06:13:21;6.70;;;3.20;;
13720;SDS011;6932;51.438;5.470;2023-04-20T06:15:47;5.17;;;3.20;;
13720;SDS011;6932;51.438;5.470;2023-04-20T06:18:12;6.23;;;3.30;;
13720;SDS011;6932;51.438;5.470;2023-04-20T06:20:38;6.43;;;3.67;;
13720;SDS011;6932;51.438;5.470;2023-04-20T06:23:04;5.97;;;3.70;;
13720;SDS011;6932;51.438;5.470;2023-04-20T06:25:30;7.57;;;3.40;;
13720;SDS011;6932;51.438;5.470;2023-04-20T06:27:55;6.53;;;3.50;;
13720;SDS011;6932;51.438;5.470;2023-04-20T06:30:21;5.60;;;3.27;;
13720;SDS011;6932;51.438;5.470;2023-04-20T06:32:47;8.63;;;3.57;;
13720;SDS011;6932;51.438;5.470;2023-04-20T06:35:13;5.90;;;3.60;;
13720;SDS011;6932;51.438;5.470;2023-04-20T06:37:38;7.10;;;3.70;;
13720;SDS011;6932;51.438;5.470;2023-04-20T06:40:04;6.73;;;3.57;;
13720;SDS011;6932;51.438;5.470;2023-04-20T06:42:35;11.20;;;3.80;;
13720;SDS011;6932;51.438;5.470;2023-04-20T06:45:01;9.90;;;3.60;;
13720;SDS011;6932;51.438;5.470;2023-04-20T06:47:28;6.97;;;3.70;;
13720;SDS011;6932;51.438;5.470;2023-04-20T06:49:57;7.33;;;3.80;;
13720;SDS011;6932;51.438;5.470;2023-04-20T06:52:25;6.60;;;3.70;;
13720;SDS011;6932;51.438;5.470;2023-04-20T06:54:52;6.00;;;3.67;;
13720;SDS011;6932;51.438;5.470;2023-04-20T06:57:18;6.50;;;3.80;;
13720;SDS011;6932;51.438;5.470;2023-04-20T06:59:44;7.37;;;4.03;;
13720;SDS011;6932;51.438;5.470;2023-04-20T07:02:10;7.30;;;3.50;;
13720;SDS011;6932;51.438;5.470;2023-04-20T07:04:35;6.80;;;3.77;;
13720;SDS011;6932;51.438;5.470;2023-04-20T07:07:01;7.53;;;3.53;;
13720;SDS011;6932;51.438;5.470;2023-04-20T07:09:27;5.17;;;3.57;;
13720;SDS011;6932;51.438;5.470;2023-04-20T07:11:52;6.70;;;3.60;;
13720;SDS011;6932;51.438;5.470;2023-04-20T07:14:20;6.50;;;3.37;;
13720;SDS011;6932;51.438;5.470;2023-04-20T07:16:46;6.90;;;3.37;;
13720;SDS011;6932;51.438;5.470;2023-04-20T07:19:11;7.10;;;3.37;;
13720;SDS011;6932;51.438;5.470;2023-04-20T07:21:37;6.73;;;3.60;;
13720;SDS011;6932;51.438;5.470;2023-04-20T07:24:03;4.70;;;3.40;;
13720;SDS011;6932;51.438;5.470;2023-04-20T07:26:29;8.80;;;3.40;;
13720;SDS011;6932;51.438;5.470;2023-04-20T07:28:55;6.23;;;3.43;;
13720;SDS011;6932;51.438;5.470;2023-04-20T07:31:21;5.90;;;3.70;;
13720;SDS011;6932;51.438;5.470;2023-04-20T07:33:47;6.90;;;3.73;;
13720;SDS011;6932;51.438;5.470;2023-04-20T07:36:12;6.07;;;3.40;;
13720;SDS011;6932;51.438;5.470;2023-04-20T07:38:38;7.87;;;3.37;;
13720;SDS011;6932;51.438;5.470;2023-04-20T07:41:07;6.70;;;3.30;;
13720;SDS011;6932;51.438;5.470;2023-04-20T07:43:36;5.27;;;3.20;;
13720;SDS011;6932;51.438;5.470;2023-04-20T07:46:03;6.37;;;3.33;;
13720;SDS011;6932;51.438;5.470;2023-04-20T07:48:29;5.87;;;3.33;;
13720;SDS011;6932;51.438;5.470;2023-04-20T07:50:55;7.20;;;3.30;;
13720;SDS011;6932;51.438;5.470;2023-04-20T07:53:21;5.37;;;3.10;;
13720;SDS011;6932;51.438;5.470;2023-04-20T07:55:47;5.07;;;3.03;;
13720;SDS011;6932;51.438;5.470;2023-04-20T07:58:13;6.57;;;3.20;;
13720;SDS011;6932;51.438;5.470;2023-04-20T08:00:40;5.60;;;3.30;;
13720;SDS011;6932;51.438;5.470;2023-04-20T08:03:06;7.30;;;3.60;;
13720;SDS011;6932;51.438;5.470;2023-04-20T08:05:31;5.20;;;3.20;;
13720;SDS011;6932;51.438;5.470;2023-04-20T08:07:57;9.33;;;3.20;;
13720;SDS011;6932;51.438;5.470;2023-04-20T08:10:23;5.53;;;3.20;;
13720;SDS011;6932;51.438;5.470;2023-04-20T08:12:49;6.03;;;3.20;;
13720;SDS011;6932;51.438;5.470;2023-04-20T08:15:16;5.87;;;3.20;;
13720;SDS011;6932;51.438;5.470;2023-04-20T08:17:42;3.97;;;2.77;;
13720;SDS011;6932;51.438;5.470;2023-04-20T08:20:08;6.10;;;2.97;;
13720;SDS011;6932;51.438;5.470;2023-04-20T08:22:34;5.23;;;3.07;;
13720;SDS011;6932;51.438;5.470;2023-04-20T08:25:00;5.67;;;3.10;;
13720;SDS011;6932;51.438;5.470;2023-04-20T08:27:26;6.67;;;2.90;;
13720;SDS011;6932;51.438;5.470;2023-04-20T08:29:54;5.43;;;3.10;;
13720;SDS011;6932;51.438;5.470;2023-04-20T08:32:20;4.53;;;3.10;;
13720;SDS011;6932;51.438;5.470;2023-04-20T08:34:48;4.17;;;2.70;;
13720;SDS011;6932;51.438;5.470;2023-04-20T08:37:14;5.30;;;2.93;;
13720;SDS011;6932;51.438;5.470;2023-04-20T08:39:40;4.30;;;3.00;;
13720;SDS011;6932;51.438;5.470;2023-04-20T08:42:05;4.17;;;2.87;;
13720;SDS011;6932;51.438;5.470;2023-04-20T08:44:31;6.10;;;3.10;;
13720;SDS011;6932;51.438;5.470;2023-04-20T08:46:57;6.50;;;3.40;;
13720;SDS011;6932;51.438;5.470;2023-04-20T08:49:23;5.03;;;2.70;;
13720;SDS011;6932;51.438;5.470;2023-04-20T08:51:53;5.30;;;3.03;;
13720;SDS011;6932;51.438;5.470;2023-04-20T08:54:19;5.53;;;3.00;;
13720;SDS011;6932;51.438;5.470;2023-04-20T08:56:45;5.77;;;3.07;;
13720;SDS011;6932;51.438;5.470;2023-04-20T08:59:12;4.27;;;2.70;;
13720;SDS011;6932;51.438;5.470;2023-04-20T09:01:40;3.90;;;2.53;;
13720;SDS011;6932;51.438;5.470;2023-04-20T09:04:22;5.07;;;2.83;;
13720;SDS011;6932;51.438;5.470;2023-04-20T09:06:51;4.40;;;2.93;;
13720;SDS011;6932;51.438;5.470;2023-04-20T09:09:20;5.83;;;3.00;;
13720;SDS011;6932;51.438;5.470;2023-04-20T09:11:58;5.93;;;2.90;;
13720;SDS011;6932;51.438;5.470;2023-04-20T09:14:41;5.87;;;2.90;;
13720;SDS011;6932;51.438;5.470;2023-04-20T09:17:12;4.33;;;2.83;;
13720;SDS011;6932;51.438;5.470;2023-04-20T09:19:40;4.60;;;2.97;;
13720;SDS011;6932;51.438;5.470;2023-04-20T09:22:09;5.00;;;2.90;;
13720;SDS011;6932;51.438;5.470;2023-04-20T09:24:36;4.33;;;2.93;;
13720;SDS011;6932;51.438;5.470;2023-04-20T09:27:14;4.30;;;3.10;;
13720;SDS011;6932;51.438;5.470;2023-04-20T09:29:41;4.47;;;2.90;;
13720;SDS011;6932;51.438;5.470;2023-04-20T09:32:18;4.37;;;2.70;;
13720;SDS011;6932;51.438;5.470;2023-04-20T09:34:47;3.70;;;2.70;;
13720;SDS011;6932;51.438;5.470;2023-04-20T09:37:14;4.73;;;2.80;;
13720;SDS011;6932;51.438;5.470;2023-04-20T09:39:44;5.13;;;2.60;;
13720;SDS011;6932;51.438;5.470;2023-04-20T09:42:11;4.40;;;2.60;;
13720;SDS011;6932;51.438;5.470;2023-04-20T09:48:20;6.00;;;2.93;;
13720;SDS011;6932;51.438;5.470;2023-04-20T09:50:47;5.73;;;2.93;;
13720;SDS011;6932;51.438;5.470;2023-04-20T09:53:16;3.93;;;2.87;;
13720;SDS011;6932;51.438;5.470;2023-04-20T09:55:44;3.67;;;2.80;;
13720;SDS011;6932;51.438;5.470;2023-04-20T09:58:17;4.97;;;3.13;;
13720;SDS011;6932;51.438;5.470;2023-04-20T10:03:42;3.93;;;2.60;;
13720;SDS011;6932;51.438;5.470;2023-04-20T10:06:22;4.50;;;2.70;;
13720;SDS011;6932;51.438;5.470;2023-04-20T10:08:53;3.90;;;2.80;;
13720;SDS011;6932;51.438;5.470;2023-04-20T10:11:26;4.33;;;2.80;;
13720;SDS011;6932;51.438;5.470;2023-04-20T10:13:53;5.33;;;3.10;;
13720;SDS011;6932;51.438;5.470;2023-04-20T10:16:21;5.60;;;2.83;;
13720;SDS011;6932;51.438;5.470;2023-04-20T10:19:00;4.70;;;3.00;;
13720;SDS011;6932;51.438;5.470;2023-04-20T10:21:29;4.20;;;2.87;;
13720;SDS011;6932;51.438;5.470;2023-04-20T10:23:57;6.37;;;3.50;;
13720;SDS011;6932;51.438;5.470;2023-04-20T10:26:37;6.63;;;3.13;;
13720;SDS011;6932;51.438;5.470;2023-04-20T10:29:09;4.73;;;3.10;;
13720;SDS011;6932;51.438;5.470;2023-04-20T10:31:47;5.13;;;3.20;;
13720;SDS011;6932;51.438;5.470;2023-04-20T10:34:13;3.80;;;2.67;;
13720;SDS011;6932;51.438;5.470;2023-04-20T10:36:38;4.63;;;3.07;;
13720;SDS011;6932;51.438;5.470;2023-04-20T10:39:18;5.77;;;2.80;;
13720;SDS011;6932;51.438;5.470;2023-04-20T10:41:52;4.53;;;2.80;;
13720;SDS011;6932;51.438;5.470;2023-04-20T10:44:25;4.57;;;2.90;;
13720;SDS011;6932;51.438;5.470;2023-04-20T10:46:52;5.20;;;2.97;;
13720;SDS011;6932;51.438;5.470;2023-04-20T10:49:24;4.30;;;3.00;;
13720;SDS011;6932;51.438;5.470;2023-04-20T10:51:52;4.70;;;3.17;;
13720;SDS011;6932;51.438;5.470;2023-04-20T10:54:19;4.00;;;3.03;;
13720;SDS011;6932;51.438;5.470;2023-04-20T11:00:18;4.50;;;3.13;;
13720;SDS011;6932;51.438;5.470;2023-04-20T11:06:29;5.83;;;3.67;;
13720;SDS011;6932;51.438;5.470;2023-04-20T11:08:56;5.37;;;3.43;;
13720;SDS011;6932;51.438;5.470;2023-04-20T11:11:22;5.33;;;3.70;;
13720;SDS011;6932;51.438;5.470;2023-04-20T11:14:09;5.23;;;3.43;;
13720;SDS011;6932;51.438;5.470;2023-04-20T11:16:36;4.90;;;3.23;;
13720;SDS011;6932;51.438;5.470;2023-04-20T11:19:04;6.00;;;3.60;;
13720;SDS011;6932;51.438;5.470;2023-04-20T11:21:34;7.83;;;3.70;;
13720;SDS011;6932;51.438;5.470;2023-04-20T11:28:03;5.50;;;3.67;;
13720;SDS011;6932;51.438;5.470;2023-04-20T11:30:38;5.37;;;3.67;;
13720;SDS011;6932;51.438;5.470;2023-04-20T11:33:05;4.83;;;3.57;;
13720;SDS011;6932;51.438;5.470;2023-04-20T11:35:34;5.30;;;3.43;;
13720;SDS011;6932;51.438;5.470;2023-04-20T11:38:07;5.30;;;3.63;;
13720;SDS011;6932;51.438;5.470;2023-04-20T11:40:34;5.37;;;3.73;;
13720;SDS011;6932;51.438;5.470;2023-04-20T11:43:00;6.60;;;3.57;;
13720;SDS011;6932;51.438;5.470;2023-04-20T11:45:26;6.60;;;3.80;;
13720;SDS011;6932;51.438;5.470;2023-04-20T11:47:55;6.80;;;4.20;;
13720;SDS011;6932;51.438;5.470;2023-04-20T11:50:20;6.23;;;4.10;;
13720;SDS011;6932;51.438;5.470;2023-04-20T11:52:46;7.67;;;4.47;;
13720;SDS011;6932;51.438;5.470;2023-04-20T11:55:12;6.47;;;4.07;;
13720;SDS011;6932;51.438;5.470;2023-04-20T11:57:38;6.70;;;4.03;;
13720;SDS011;6932;51.438;5.470;2023-04-20T12:00:04;5.20;;;3.67;;
13720;SDS011;6932;51.438;5.470;2023-04-20T12:02:31;5.90;;;3.83;;
13720;SDS011;6932;51.438;5.470;2023-04-20T12:04:56;6.57;;;4.00;;
13720;SDS011;6932;51.438;5.470;2023-04-20T12:07:25;5.90;;;4.00;;
13720;SDS011;6932;51.438;5.470;2023-04-20T12:09:52;5.77;;;3.80;;
13720;SDS011;6932;51.438;5.470;2023-04-20T12:12:18;5.70;;;3.80;;
13720;SDS011;6932;51.438;5.470;2023-04-20T12:14:43;5.87;;;4.17;;
13720;SDS011;6932;51.438;5.470;2023-04-20T12:17:09;5.93;;;4.10;;
13720;SDS011;6932;51.438;5.470;2023-04-20T12:19:35;5.83;;;3.80;;
13720;SDS011;6932;51.438;5.470;2023-04-20T12:22:01;7.00;;;3.90;;
13720;SDS011;6932;51.438;5.470;2023-04-20T12:24:27;5.70;;;3.90;;
13720;SDS011;6932;51.438;5.470;2023-04-20T12:26:53;5.67;;;3.70;;
13720;SDS011;6932;51.438;5.470;2023-04-20T12:29:19;6.07;;;4.00;;
13720;SDS011;6932;51.438;5.470;2023-04-20T12:31:45;5.90;;;3.73;;
13720;SDS011;6932;51.438;5.470;2023-04-20T12:34:11;6.57;;;4.00;;
13720;SDS011;6932;51.438;5.470;2023-04-20T12:36:37;5.27;;;3.80;;
13720;SDS011;6932;51.438;5.470;2023-04-20T12:39:02;5.83;;;4.30;;
13720;SDS011;6932;51.438;5.470;2023-04-20T12:41:28;7.03;;;4.23;;
13720;SDS011;6932;51.438;5.470;2023-04-20T12:43:54;6.33;;;4.50;;
13720;SDS011;6932;51.438;5.470;2023-04-20T12:46:20;8.20;;;5.10;;
13720;SDS011;6932;51.438;5.470;2023-04-20T12:51:43;7.13;;;5.27;;
13720;SDS011;6932;51.438;5.470;2023-04-20T12:54:08;7.23;;;5.17;;
13720;SDS011;6932;51.438;5.470;2023-04-20T12:56:35;8.53;;;5.80;;
13720;SDS011;6932;51.438;5.470;2023-04-20T12:59:01;6.47;;;5.00;;
13720;SDS011;6932;51.438;5.470;2023-04-20T13:05:01;6.33;;;4.40;;
13720;SDS011;6932;51.438;5.470;2023-04-20T13:07:28;6.07;;;4.17;;
13720;SDS011;6932;51.438;5.470;2023-04-20T13:09:55;6.00;;;4.27;;
13720;SDS011;6932;51.438;5.470;2023-04-20T13:12:21;6.43;;;4.47;;
13720;SDS011;6932;51.438;5.470;2023-04-20T13:14:47;6.93;;;4.47;;
13720;SDS011;6932;51.438;5.470;2023-04-20T13:17:13;7.07;;;4.47;;
13720;SDS011;6932;51.438;5.470;2023-04-20T13:19:39;6.00;;;4.50;;
13720;SDS011;6932;51.438;5.470;2023-04-20T13:25:22;7.40;;;4.47;;
13720;SDS011;6932;51.438;5.470;2023-04-20T13:27:49;6.37;;;4.60;;
13720;SDS011;6932;51.438;5.470;2023-04-20T13:30:15;7.53;;;4.67;;
13720;SDS011;6932;51.438;5.470;2023-04-20T13:32:41;7.53;;;4.70;;
13720;SDS011;6932;51.438;5.470;2023-04-20T13:35:06;6.33;;;4.67;;
13720;SDS011;6932;51.438;5.470;2023-04-20T13:37:36;6.40;;;4.50;;
13720;SDS011;6932;51.438;5.470;2023-04-20T13:40:03;7.23;;;4.93;;
13720;SDS011;6932;51.438;5.470;2023-04-20T13:42:30;7.70;;;5.10;;
13720;SDS011;6932;51.438;5.470;2023-04-20T13:44:56;7.27;;;5.00;;
13720;SDS011;6932;51.438;5.470;2023-04-20T13:47:22;6.67;;;4.83;;
13720;SDS011;6932;51.438;5.470;2023-04-20T13:49:48;6.47;;;4.77;;
13720;SDS011;6932;51.438;5.470;2023-04-20T13:52:14;7.87;;;5.40;;
13720;SDS011;6932;51.438;5.470;2023-04-20T13:54:40;7.90;;;4.97;;
13720;SDS011;6932;51.438;5.470;2023-04-20T13:57:05;7.13;;;5.07;;
13720;SDS011;6932;51.438;5.470;2023-04-20T14:22:54;8.43;;;5.60;;
13720;SDS011;6932;51.438;5.470;2023-04-20T14:25:19;7.93;;;5.47;;
13720;SDS011;6932;51.438;5.470;2023-04-20T14:27:45;7.43;;;5.20;;
13720;SDS011;6932;51.438;5.470;2023-04-20T14:30:11;7.03;;;5.20;;
13720;SDS011;6932;51.438;5.470;2023-04-20T14:32:38;6.60;;;5.10;;
13720;SDS011;6932;51.438;5.470;2023-04-20T14:35:05;7.63;;;5.00;;
13720;SDS011;6932;51.438;5.470;2023-04-20T14:37:33;8.53;;;5.30;;
13720;SDS011;6932;51.438;5.470;2023-04-20T14:54:52;7.13;;;4.70;;
13720;SDS011;6932;51.438;5.470;2023-04-20T14:57:17;6.13;;;4.47;;
13720;SDS011;6932;51.438;5.470;2023-04-20T14:59:43;6.80;;;4.73;;
13720;SDS011;6932;51.438;5.470;2023-04-20T15:02:09;7.03;;;4.67;;
13720;SDS011;6932;51.438;5.470;2023-04-20T15:04:34;6.80;;;4.30;;
13720;SDS011;6932;51.438;5.470;2023-04-20T15:07:00;6.90;;;4.53;;
13720;SDS011;6932;51.438;5.470;2023-04-20T15:09:26;7.83;;;4.80;;
13720;SDS011;6932;51.438;5.470;2023-04-20T15:11:52;7.93;;;5.00;;
13720;SDS011;6932;51.438;5.470;2023-04-20T15:14:19;7.47;;;4.70;;
13720;SDS011;6932;51.438;5.470;2023-04-20T15:16:45;6.57;;;4.77;;
13720;SDS011;6932;51.438;5.470;2023-04-20T15:19:10;7.37;;;4.70;;
13720;SDS011;6932;51.438;5.470;2023-04-20T15:21:36;6.87;;;4.83;;
13720;SDS011;6932;51.438;5.470;2023-04-20T15:24:02;6.23;;;4.57;;
13720;SDS011;6932;51.438;5.470;2023-04-20T15:26:28;8.07;;;4.90;;
13720;SDS011;6932;51.438;5.470;2023-04-20T15:28:53;8.57;;;4.50;;
13720;SDS011;6932;51.438;5.470;2023-04-20T15:38:51;10.00;;;5.47;;
13720;SDS011;6932;51.438;5.470;2023-04-20T15:41:17;7.90;;;5.60;;
13720;SDS011;6932;51.438;5.470;2023-04-20T15:43:44;6.53;;;4.53;;
13720;SDS011;6932;51.438;5.470;2023-04-20T15:46:10;6.57;;;4.70;;
13720;SDS011;6932;51.438;5.470;2023-04-20T15:48:36;6.40;;;4.70;;
13720;SDS011;6932;51.438;5.470;2023-04-20T15:51:02;6.53;;;4.57;;
13720;SDS011;6932;51.438;5.470;2023-04-20T15:53:28;6.43;;;4.40;;
13720;SDS011;6932;51.438;5.470;2023-04-20T15:55:54;8.13;;;4.20;;
13720;SDS011;6932;51.438;5.470;2023-04-20T16:13:13;8.53;;;5.80;;
13720;SDS011;6932;51.438;5.470;2023-04-20T16:15:39;8.30;;;5.20;;
13720;SDS011;6932;51.438;5.470;2023-04-20T16:18:05;8.20;;;4.83;;
13720;SDS011;6932;51.438;5.470;2023-04-20T16:20:31;7.37;;;5.03;;
13720;SDS011;6932;51.438;5.470;2023-04-20T16:22:56;8.07;;;4.97;;
13720;SDS011;6932;51.438;5.470;2023-04-20T16:25:22;7.40;;;5.00;;
13720;SDS011;6932;51.438;5.470;2023-04-20T16:27:49;6.63;;;4.60;;
13720;SDS011;6932;51.438;5.470;2023-04-20T16:30:16;7.30;;;4.50;;
13720;SDS011;6932;51.438;5.470;2023-04-20T16:47:34;8.77;;;5.53;;
13720;SDS011;6932;51.438;5.470;2023-04-20T16:50:00;7.70;;;5.47;;
13720;SDS011;6932;51.438;5.470;2023-04-20T16:52:25;9.47;;;5.50;;
13720;SDS011;6932;51.438;5.470;2023-04-20T16:54:51;9.10;;;5.57;;
13720;SDS011;6932;51.438;5.470;2023-04-20T16:57:17;8.47;;;5.27;;
13720;SDS011;6932;51.438;5.470;2023-04-20T16:59:42;8.83;;;5.80;;
13720;SDS011;6932;51.438;5.470;2023-04-20T17:02:08;9.27;;;6.00;;
13720;SDS011;6932;51.438;5.470;2023-04-20T17:04:34;8.87;;;5.40;;
13720;SDS011;6932;51.438;5.470;2023-04-20T17:21:58;9.83;;;6.00;;
13720;SDS011;6932;51.438;5.470;2023-04-20T17:24:24;9.43;;;5.87;;
13720;SDS011;6932;51.438;5.470;2023-04-20T17:26:49;8.47;;;5.53;;
13720;SDS011;6932;51.438;5.470;2023-04-20T17:29:16;9.17;;;5.90;;
13720;SDS011;6932;51.438;5.470;2023-04-20T17:31:41;9.20;;;5.63;;
13720;SDS011;6932;51.438;5.470;2023-04-20T17:34:08;9.30;;;5.70;;
13720;SDS011;6932;51.438;5.470;2023-04-20T17:36:34;8.63;;;5.77;;
13720;SDS011;6932;51.438;5.470;2023-04-20T17:39:00;9.33;;;5.90;;
13720;SDS011;6932;51.438;5.470;2023-04-20T17:53:13;8.33;;;6.03;;
13720;SDS011;6932;51.438;5.470;2023-04-20T17:55:38;9.10;;;5.97;;
13720;SDS011;6932;51.438;5.470;2023-04-20T17:58:04;9.80;;;6.63;;
13720;SDS011;6932;51.438;5.470;2023-04-20T18:00:30;8.83;;;5.90;;
13720;SDS011;6932;51.438;5.470;2023-04-20T18:02:57;9.47;;;6.13;;
13720;SDS011;6932;51.438;5.470;2023-04-20T18:05:24;8.27;;;5.70;;